Date,TemperatureHighF,TemperatureAvgF,TemperatureLowF,DewpointHighF,DewpointAvgF,DewpointLowF,HumidityHigh,HumidityAvg,HumidityLow,PressureMaxIn,PressureMinIn,WindSpeedMaxMPH,WindSpeedAvgMPH,GustSpeedMaxMPH,PrecipitationSumIn
2013-3-1,7.0,-7.7,-19.2,-3.2,-13.8,-23.6,92,74,57,30.06,29.78,11,1,12,0.00
2013-3-2,24.7,5.0,-15.6,3.7,-7.4,-19.9,84,59,25,30.05,29.94,15,2,15,0.00
2013-3-3,24.7,18.4,8.9,15.1,10.7,0.3,86,72,60,30.14,29.95,20,3,20,0.00
2013-3-4,30.5,26.4,21.3,27.3,20.2,13.3,90,77,65,30.14,29.82,31,14,33,0.00
2013-3-5,33.1,31.8,30.0,32.2,30.5,27.3,97,95,90,29.82,29.56,30,16,32,0.07
2013-3-6,32.4,27.9,25.1,31.6,26.9,23.9,97,96,93,29.68,29.53,15,4,16,0.00
2013-3-7,33.1,30.3,26.7,31.7,28.4,22.4,97,93,82,29.60,29.01,30,16,31,0.01
2013-3-8,33.5,31.2,29.4,32.5,30.8,29.1,99,98,95,29.34,29.03,25,9,26,0.07
2013-3-9,29.5,18.8,12.1,29.0,17.3,9.7,100,94,89,29.80,29.34,27,7,30,0.00
2013-3-10,24.7,15.8,-2.6,23.5,12.2,-6.0,96,85,74,30.57,29.77,15,4,16,0.00
2013-3-11,14.6,1.3,-9.5,11.1,-2.7,-12.9,88,83,76,30.75,30.56,11,2,11,0.00
2013-3-12,16.0,-2.5,-17.2,10.2,-7.1,-20.9,89,81,61,30.71,30.41,6,0,6,0.00
2013-3-13,27.2,13.7,-0.1,20.2,7.8,-3.1,90,78,42,30.41,30.16,15,1,15,0.01
2013-3-14,21.5,12.4,8.3,9.5,-1.9,-7.0,66,52,39,30.22,29.90,33,16,33,0.01
2013-3-15,20.3,14.4,7.7,13.8,4.7,-4.6,90,66,46,29.94,29.68,23,7,27,0.00
2013-3-16,19.2,14.6,11.3,17.3,10.4,3.5,92,84,68,30.02,29.70,28,12,29,0.00
2013-3-17,27.2,19.1,9.0,21.8,15.6,5.4,99,86,76,30.32,30.02,22,8,25,0.00
2013-3-18,23.6,14.3,-4.9,14.7,7.7,-8.5,93,76,52,30.36,30.28,27,5,27,0.00
2013-3-19,17.7,11.5,2.0,7.0,0.8,-8.9,84,62,44,30.39,30.16,11,2,13,0.00
2013-3-20,18.4,10.0,-4.8,12.4,3.0,-11.1,92,74,54,30.17,29.96,10,2,13,0.00
2013-3-21,7.1,-4.3,-15.4,-3.8,-11.3,-20.5,85,72,58,30.04,30.00,10,2,10,0.00
2013-3-22,-1.1,-7.4,-18.3,-10.2,-15.9,-25.4,76,65,54,30.08,30.01,24,7,27,0.00
2013-3-23,5.8,-9.8,-23.7,-7.1,-17.3,-29.0,92,69,49,30.07,30.04,8,1,9,0.00
2013-3-24,1.0,-10.7,-24.4,-9.3,-18.8,-30.0,89,67,53,30.10,30.07,12,2,13,0.00
2013-3-25,3.2,-7.1,-19.0,-9.9,-15.9,-25.0,79,65,50,30.09,30.01,17,3,17,0.00
2013-3-26,2.6,-6.8,-17.2,-9.9,-15.3,-22.7,81,66,54,30.22,30.04,15,2,15,0.00
2013-3-27,2.0,-8.2,-20.7,-8.3,-15.5,-26.1,81,70,58,30.23,30.00,10,4,10,0.00
2013-3-28,23.3,5.0,-17.6,13.7,-4.4,-22.9,92,66,39,30.00,29.70,15,2,16,0.00
2013-3-29,26.6,19.7,15.9,18.0,14.3,11.1,88,79,68,29.94,29.71,11,2,11,0.03
2013-3-30,17.2,17.1,16.9,13.5,13.4,12.8,85,85,85,29.95,29.94,5,2,5,0.00